Time;durP1;ratioP1;P1;durP2;ratioP2;P2;SDS_P1;SDS_P2;PMS_P1;PMS_P2;Temp;Humidity;BMP_temperature;BMP_pressure;BME280_temperature;BME280_humidity;BME280_pressure;Samples;Min_cycle;Max_cycle;Signal;HPM_P1;HPM_P2
2022/01/13 00:01:54;;;;;;;46.30;13.50;;;5.10;99.90;;;;;;5073780;28;20043;-78
2022/01/13 00:04:20;;;;;;;47.70;14.43;;;5.10;99.90;;;;;;5057091;28;20087;-78
2022/01/13 00:06:47;;;;;;;21.50;8.73;;;5.10;99.90;;;;;;5073676;28;20044;-78
2022/01/13 00:09:14;;;;;;;26.90;9.00;;;5.00;99.90;;;;;;5057114;28;20497;-78
2022/01/13 00:11:40;;;;;;;43.42;12.48;;;4.90;99.90;;;;;;5073691;28;20048;-80
2022/01/13 00:16:45;;;;;;;33.70;11.25;;;4.80;99.90;;;;;;5073613;28;20046;-81
2022/01/13 00:21:59;;;;;;;40.30;11.30;;;4.70;99.90;;;;;;5073765;28;20044;-80
2022/01/13 00:24:25;;;;;;;42.00;12.60;;;4.70;99.90;;;;;;5073466;28;20062;-78
2022/01/13 00:26:52;;;;;;;31.98;10.48;;;4.70;99.90;;;;;;5056649;28;20053;-80
2022/01/13 00:29:24;;;;;;;42.17;13.45;;;4.70;99.90;;;;;;5056898;28;20127;-78
2022/01/13 00:31:50;;;;;;;55.40;14.10;;;4.60;99.90;;;;;;5073374;28;20455;-81
2022/01/13 00:34:16;;;;;;;14.85;5.35;;;4.60;99.90;;;;;;5073252;28;20086;-78
2022/01/13 00:36:41;;;;;;;16.83;8.38;;;4.60;99.90;;;;;;5056458;28;20127;-78
2022/01/13 00:39:09;;;;;;;24.58;7.68;;;4.60;99.90;;;;;;5039029;28;20146;-78
2022/01/13 00:41:34;;;;;;;32.78;9.93;;;4.60;99.90;;;;;;5073428;28;20066;-80
2022/01/13 00:44:06;;;;;;;17.67;6.38;;;4.60;99.90;;;;;;5056368;28;20062;-80
2022/01/13 00:46:41;;;;;;;24.55;8.15;;;4.60;99.90;;;;;;5073015;28;20041;-78
2022/01/13 00:49:08;;;;;;;33.40;9.95;;;4.80;99.90;;;;;;5072782;28;20095;-78
2022/01/13 00:51:33;;;;;;;60.45;15.10;;;4.60;99.90;;;;;;5039712;28;20047;-78
2022/01/13 00:54:04;;;;;;;32.85;10.52;;;4.70;99.90;;;;;;5072741;28;20483;-80
2022/01/13 00:56:30;;;;;;;34.85;10.80;;;4.70;99.90;;;;;;5073137;28;20053;-78
2022/01/13 00:58:56;;;;;;;37.53;12.30;;;4.70;99.90;;;;;;5056289;28;20498;-81
2022/01/13 01:01:22;;;;;;;38.53;12.10;;;4.90;99.90;;;;;;5056084;28;20040;-80
2022/01/13 01:03:48;;;;;;;71.78;16.38;;;4.80;99.90;;;;;;5055827;28;20052;-80
2022/01/13 01:06:14;;;;;;;61.65;15.50;;;4.80;99.90;;;;;;5072622;28;20087;-78
2022/01/13 01:08:40;;;;;;;41.83;12.38;;;4.80;99.90;;;;;;5072378;28;20037;-80
2022/01/13 01:11:06;;;;;;;56.47;15.98;;;4.90;99.90;;;;;;5055868;28;20074;-80
2022/01/13 01:13:34;;;;;;;70.85;16.38;;;4.90;99.90;;;;;;5072329;28;20048;-80
2022/01/13 01:16:05;;;;;;;51.05;15.43;;;4.90;99.90;;;;;;5072336;28;20044;-81
2022/01/13 01:18:41;;;;;;;109.30;20.13;;;4.90;99.90;;;;;;5072938;28;20546;-80
2022/01/13 01:32:10;;;;;;;45.42;12.63;;;5.10;99.90;;;;;;5054356;28;20068;-78
2022/01/13 01:34:55;;;;;;;28.13;10.57;;;5.10;99.90;;;;;;5068662;28;20580;-80
2022/01/13 01:37:26;;;;;;;22.55;8.40;;;5.10;99.90;;;;;;5072183;28;20121;-78
2022/01/13 01:39:52;;;;;;;97.68;23.50;;;5.10;99.90;;;;;;5072332;28;20508;-80
2022/01/13 01:42:19;;;;;;;61.35;17.52;;;5.10;99.90;;;;;;5055448;28;20044;-78
2022/01/13 01:44:47;;;;;;;35.63;10.43;;;5.30;99.90;;;;;;5071930;28;20083;-80
2022/01/13 01:47:16;;;;;;;24.50;9.10;;;5.10;99.90;;;;;;5038789;28;20041;-80
2022/01/13 01:49:45;;;;;;;50.20;15.40;;;5.10;99.90;;;;;;5071589;28;20056;-80
2022/01/13 01:52:13;;;;;;;67.45;17.65;;;5.10;99.90;;;;;;5055126;28;20043;-78
2022/01/13 01:54:39;;;;;;;64.50;18.80;;;5.10;99.90;;;;;;5055453;28;20044;-78
2022/01/13 01:57:06;;;;;;;78.03;20.48;;;5.10;99.90;;;;;;5055425;28;20040;-80
2022/01/13 01:59:35;;;;;;;51.63;15.40;;;5.20;99.90;;;;;;5071756;28;20123;-78
2022/01/13 02:02:01;;;;;;;42.33;13.00;;;5.10;99.90;;;;;;5071671;28;20049;-78
2022/01/13 02:04:28;;;;;;;32.70;11.23;;;5.10;99.90;;;;;;5071497;28;20411;-80
2022/01/13 02:06:55;;;;;;;24.63;9.80;;;5.10;99.90;;;;;;5054872;28;20044;-78
2022/01/13 02:09:22;;;;;;;54.58;16.35;;;5.10;99.90;;;;;;5071733;28;20044;-78
2022/01/13 02:11:54;;;;;;;66.38;19.58;;;5.10;99.90;;;;;;5071539;28;20044;-81
2022/01/13 02:17:09;;;;;;;41.55;14.40;;;5.20;99.90;;;;;;5071786;28;20084;-81
2022/01/13 02:19:46;;;;;;;40.05;13.45;;;5.20;99.90;;;;;;5054849;28;20087;-78
2022/01/13 02:22:13;;;;;;;84.47;24.02;;;5.20;99.90;;;;;;5055169;28;20044;-78
2022/01/13 02:24:39;;;;;;;55.40;18.35;;;5.20;99.90;;;;;;5054780;28;20037;-81
2022/01/13 02:27:06;;;;;;;92.93;26.70;;;5.10;99.90;;;;;;5055005;28;20182;-78
2022/01/13 02:29:33;;;;;;;28.15;11.43;;;5.10;99.90;;;;;;5054623;28;20101;-80
2022/01/13 02:31:59;;;;;;;59.05;19.25;;;5.20;99.90;;;;;;5071174;28;20048;-80
2022/01/13 02:34:25;;;;;;;35.85;14.75;;;5.10;99.90;;;;;;5071684;28;20045;-81
2022/01/13 02:36:54;;;;;;;28.30;12.95;;;5.10;99.90;;;;;;5038018;28;20102;-78
2022/01/13 02:39:21;;;;;;;32.17;12.82;;;5.00;99.90;;;;;;5054653;28;20119;-78
2022/01/13 02:41:47;;;;;;;53.63;18.40;;;5.00;99.90;;;;;;5038114;28;20037;-81
2022/01/13 02:44:16;;;;;;;54.72;16.92;;;5.10;99.90;;;;;;5054543;28;20045;-80
2022/01/13 02:49:10;;;;;;;43.90;13.38;;;4.90;99.90;;;;;;5054404;28;20106;-80
2022/01/13 02:51:38;;;;;;;34.53;11.98;;;5.00;99.90;;;;;;5071186;28;20044;-80
2022/01/13 02:54:05;;;;;;;59.75;20.38;;;4.90;99.90;;;;;;5054674;28;20059;-80
2022/01/13 02:56:31;;;;;;;49.58;16.83;;;5.00;99.90;;;;;;5071228;28;20052;-78
2022/01/13 02:58:58;;;;;;;53.42;19.52;;;5.10;99.90;;;;;;5071102;28;20048;-81
2022/01/13 03:01:24;;;;;;;39.80;14.13;;;5.00;99.90;;;;;;5071486;28;20047;-78
2022/01/13 03:03:50;;;;;;;65.55;20.48;;;5.00;99.90;;;;;;5058151;28;20052;-80
2022/01/13 03:06:21;;;;;;;58.53;19.20;;;5.00;99.90;;;;;;5058277;28;20094;-78
2022/01/13 03:08:48;;;;;;;47.75;14.27;;;5.00;99.90;;;;;;5074979;28;20049;-78
2022/01/13 03:11:15;;;;;;;52.13;16.75;;;4.90;99.90;;;;;;5058328;28;20131;-80
2022/01/13 03:13:41;;;;;;;64.45;17.85;;;4.90;99.90;;;;;;5074786;28;20049;-78
2022/01/13 04:20:44;;;;;;;89.82;22.42;;;4.70;99.90;;;;;;5107012;27;20956;-81
2022/01/13 04:23:10;;;;;;;53.47;11.48;;;4.80;99.90;;;;;;5088827;28;20060;-81
2022/01/13 04:25:36;;;;;;;45.08;14.48;;;4.80;99.90;;;;;;5088026;28;20040;-79
2022/01/13 04:28:03;;;;;;;121.65;25.17;;;4.90;99.90;;;;;;5054634;28;20119;-79
2022/01/13 04:30:45;;;;;;;124.25;25.00;;;4.90;99.90;;;;;;5072086;28;20051;-79
2022/01/13 04:33:12;;;;;;;69.88;18.92;;;4.90;99.90;;;;;;5071572;28;20048;-78
2022/01/13 04:35:39;;;;;;;48.97;12.80;;;4.90;99.90;;;;;;5055607;28;20052;-78
2022/01/13 04:38:05;;;;;;;69.55;17.67;;;4.90;99.90;;;;;;5088463;28;20052;-82
2022/01/13 04:40:30;;;;;;;25.60;9.05;;;5.10;99.90;;;;;;5054589;28;20047;-78
2022/01/13 04:42:56;;;;;;;64.70;15.07;;;5.00;99.90;;;;;;5070769;28;20464;-78
2022/01/13 04:45:24;;;;;;;32.63;10.65;;;5.00;99.90;;;;;;5071309;28;20482;-81
2022/01/13 04:47:52;;;;;;;86.90;17.83;;;5.00;99.90;;;;;;5087807;28;20040;-78
2022/01/13 04:50:20;;;;;;;90.53;20.17;;;5.00;99.90;;;;;;5077452;28;20048;-79
2022/01/13 04:52:46;;;;;;;50.42;13.23;;;5.10;99.90;;;;;;5088279;28;20391;-78
2022/01/13 04:55:13;;;;;;;33.03;11.30;;;5.30;99.90;;;;;;5071513;28;20181;-79
2022/01/13 04:57:40;;;;;;;72.65;17.42;;;5.10;99.90;;;;;;5037980;28;20044;-81
2022/01/13 05:00:09;;;;;;;42.38;14.63;;;5.10;99.90;;;;;;5071059;28;20140;-79
2022/01/13 05:02:35;;;;;;;57.17;15.13;;;5.10;99.90;;;;;;5087642;28;20083;-78
2022/01/13 05:05:00;;;;;;;108.38;18.88;;;5.20;99.90;;;;;;5071425;28;20071;-79
2022/01/13 05:07:26;;;;;;;24.83;9.15;;;5.10;99.90;;;;;;5054203;28;20076;-78
2022/01/13 05:09:52;;;;;;;42.35;13.27;;;5.20;99.90;;;;;;5087838;28;20047;-81
2022/01/13 05:12:18;;;;;;;31.58;11.10;;;5.20;99.90;;;;;;5087545;28;20048;-78
2022/01/13 05:14:47;;;;;;;52.15;13.75;;;5.10;99.90;;;;;;5038396;28;20151;-81
2022/01/13 05:17:34;;;;;;;28.23;9.90;;;5.20;99.90;;;;;;5070961;28;20041;-78
2022/01/13 05:20:13;;;;;;;62.92;16.25;;;5.10;99.90;;;;;;5049747;28;20057;-78
2022/01/13 05:22:39;;;;;;;48.35;13.07;;;5.10;99.90;;;;;;5043377;28;20044;-78
2022/01/13 05:25:05;;;;;;;74.50;15.27;;;5.10;99.90;;;;;;5057954;28;20426;-78
2022/01/13 05:27:31;;;;;;;70.97;14.70;;;5.20;99.90;;;;;;5057535;28;20045;-81
2022/01/13 05:29:58;;;;;;;136.95;25.67;;;5.20;99.90;;;;;;5057428;28;20045;-78
2022/01/13 05:32:24;;;;;;;75.35;17.85;;;5.20;99.90;;;;;;5057153;28;20052;-81
2022/01/13 05:34:50;;;;;;;77.07;17.48;;;5.20;99.90;;;;;;5074186;28;20407;-82
2022/01/13 05:37:15;;;;;;;44.58;13.45;;;5.20;99.90;;;;;;5073848;28;20052;-78
2022/01/13 05:39:41;;;;;;;51.65;16.60;;;5.20;99.90;;;;;;5040669;28;20036;-78
2022/01/13 05:42:07;;;;;;;85.13;17.73;;;5.30;99.90;;;;;;5057221;28;20082;-79
2022/01/13 05:44:38;;;;;;;59.88;14.55;;;5.30;99.90;;;;;;5040550;28;20052;-78
2022/01/13 05:47:05;;;;;;;97.72;22.73;;;5.30;99.90;;;;;;5073931;28;20125;-78
2022/01/13 05:49:31;;;;;;;81.28;19.30;;;5.30;99.90;;;;;;5073322;28;20486;-81
2022/01/13 05:51:57;;;;;;;114.10;26.17;;;5.40;99.90;;;;;;5073886;28;20076;-78
2022/01/13 05:54:22;;;;;;;78.18;21.73;;;5.40;99.90;;;;;;5023671;28;20033;-78
2022/01/13 05:56:48;;;;;;;110.82;24.75;;;5.50;99.90;;;;;;5056555;28;20043;-78
2022/01/13 05:59:14;;;;;;;82.72;21.35;;;5.50;99.90;;;;;;5039000;28;20406;-81
2022/01/13 06:01:40;;;;;;;58.00;17.27;;;5.50;99.90;;;;;;5040023;28;20036;-78
2022/01/13 06:04:05;;;;;;;22.08;9.27;;;5.50;99.90;;;;;;5056386;28;20425;-81
2022/01/13 06:06:31;;;;;;;38.20;12.15;;;5.50;99.90;;;;;;5056841;28;20044;-80
2022/01/13 06:08:57;;;;;;;62.72;17.58;;;5.60;99.90;;;;;;5056268;28;20045;-81
2022/01/13 06:11:24;;;;;;;28.90;13.30;;;5.50;99.90;;;;;;5056572;28;20086;-81
2022/01/13 06:13:49;;;;;;;44.78;13.63;;;5.70;99.90;;;;;;5072531;28;20040;-81
2022/01/13 06:16:16;;;;;;;74.40;18.90;;;5.60;99.90;;;;;;5056529;28;20131;-81
2022/01/13 06:18:42;;;;;;;71.18;17.55;;;5.50;99.90;;;;;;5072517;28;20091;-81
2022/01/13 06:21:07;;;;;;;43.72;13.43;;;5.50;99.90;;;;;;5073110;28;20084;-81
2022/01/13 06:23:33;;;;;;;45.17;14.88;;;5.50;99.90;;;;;;5072531;28;20055;-78
2022/01/13 06:25:59;;;;;;;33.92;11.10;;;5.70;99.90;;;;;;5073214;28;20068;-82
2022/01/13 06:28:26;;;;;;;44.13;14.20;;;5.50;99.90;;;;;;5072374;28;20036;-81
2022/01/13 06:30:52;;;;;;;76.57;18.27;;;5.60;99.90;;;;;;5056629;28;20491;-81
2022/01/13 06:33:17;;;;;;;53.88;17.67;;;5.50;99.90;;;;;;5054602;28;20044;-81
2022/01/13 06:35:43;;;;;;;54.38;15.85;;;5.60;99.90;;;;;;5039285;28;20510;-78
2022/01/13 06:38:09;;;;;;;36.92;13.68;;;5.60;99.90;;;;;;5022719;28;20755;-81
2022/01/13 06:40:34;;;;;;;39.85;14.07;;;5.60;99.90;;;;;;5072127;28;20178;-82
2022/01/13 06:43:00;;;;;;;66.60;21.38;;;5.60;99.90;;;;;;5072829;28;20037;-79
2022/01/13 06:45:26;;;;;;;23.98;10.50;;;5.60;99.90;;;;;;5055506;28;20052;-81
2022/01/13 06:47:52;;;;;;;29.85;12.48;;;5.70;99.90;;;;;;5055743;28;20050;-81
2022/01/13 06:50:17;;;;;;;39.63;13.00;;;5.70;99.90;;;;;;5055468;28;20046;-81
2022/01/13 06:52:44;;;;;;;39.63;15.35;;;5.60;99.90;;;;;;5055922;28;20513;-82
2022/01/13 06:55:10;;;;;;;34.45;13.57;;;5.70;99.90;;;;;;5055354;28;20044;-81
2022/01/13 06:57:37;;;;;;;31.77;12.02;;;5.70;99.90;;;;;;5055683;28;20062;-81
2022/01/13 07:00:04;;;;;;;33.45;11.90;;;5.70;99.90;;;;;;5055500;28;20051;-82
2022/01/13 07:02:31;;;;;;;67.43;20.55;;;5.70;99.90;;;;;;5054768;28;20044;-78
2022/01/13 07:04:56;;;;;;;52.83;18.60;;;5.70;99.90;;;;;;5022568;28;20041;-79
2022/01/13 07:07:22;;;;;;;90.50;26.85;;;5.70;99.90;;;;;;5072099;28;20388;-79
2022/01/13 07:09:48;;;;;;;26.45;11.82;;;5.70;99.90;;;;;;5038531;28;20567;-78
2022/01/13 07:12:14;;;;;;;46.30;17.52;;;5.90;99.90;;;;;;5055255;28;20056;-81
2022/01/13 07:14:39;;;;;;;90.00;26.08;;;5.80;99.90;;;;;;5054732;28;20486;-79
2022/01/13 07:17:05;;;;;;;50.95;20.45;;;5.90;99.90;;;;;;5055453;28;20109;-82
2022/01/13 07:19:31;;;;;;;33.70;13.65;;;5.80;99.90;;;;;;5054112;28;20051;-82
2022/01/13 07:21:57;;;;;;;43.67;16.77;;;5.80;99.90;;;;;;5055359;28;20095;-79
2022/01/13 07:24:23;;;;;;;39.35;15.23;;;5.90;99.90;;;;;;5071474;28;20045;-82
2022/01/13 07:26:48;;;;;;;46.45;16.35;;;5.90;99.90;;;;;;5071191;28;20040;-81
2022/01/13 07:29:14;;;;;;;60.10;20.38;;;5.80;99.90;;;;;;5038006;28;20650;-82
2022/01/13 07:31:40;;;;;;;37.72;15.13;;;5.90;99.90;;;;;;5055051;28;20049;-82
2022/01/13 07:34:06;;;;;;;65.95;24.70;;;5.90;99.90;;;;;;5038062;28;20052;-81
2022/01/13 07:36:33;;;;;;;26.38;12.82;;;5.90;99.90;;;;;;5055149;28;20416;-78
2022/01/13 07:38:59;;;;;;;41.10;15.90;;;5.90;99.90;;;;;;5055038;28;20052;-78
2022/01/13 07:41:24;;;;;;;33.25;14.60;;;6.00;99.90;;;;;;5037798;28;20119;-78
2022/01/13 07:43:54;;;;;;;50.90;16.15;;;5.90;99.90;;;;;;5037688;28;20045;-81
2022/01/13 07:46:22;;;;;;;41.55;15.43;;;6.00;99.90;;;;;;5054852;28;20125;-78
2022/01/13 07:48:48;;;;;;;50.35;15.60;;;6.00;99.90;;;;;;5054571;28;20051;-82
2022/01/13 07:51:13;;;;;;;32.70;14.95;;;6.00;99.90;;;;;;5038102;28;20040;-79
2022/01/13 07:53:39;;;;;;;31.63;13.75;;;6.00;99.90;;;;;;5071485;28;20055;-81
2022/01/13 07:56:05;;;;;;;42.67;14.95;;;6.00;99.90;;;;;;5071546;28;20041;-80
2022/01/13 07:58:30;;;;;;;42.53;15.30;;;6.00;99.90;;;;;;5054135;28;20044;-81
2022/01/13 08:00:56;;;;;;;36.38;17.60;;;6.00;99.90;;;;;;5037153;28;20044;-81
2022/01/13 08:03:22;;;;;;;27.23;13.75;;;6.00;99.90;;;;;;5021454;28;20037;-81
2022/01/13 08:05:48;;;;;;;56.63;21.17;;;6.00;99.90;;;;;;5054087;28;20036;-79
2022/01/13 08:08:13;;;;;;;35.90;15.63;;;6.00;99.90;;;;;;5054075;28;20045;-82
2022/01/13 08:10:39;;;;;;;57.75;21.08;;;5.90;99.90;;;;;;5054574;28;20440;-81
2022/01/13 08:13:05;;;;;;;55.40;19.73;;;6.00;99.90;;;;;;5053940;28;20561;-82
2022/01/13 08:15:31;;;;;;;45.90;14.25;;;6.00;99.90;;;;;;5070320;28;20072;-78
2022/01/13 08:20:41;;;;;;;57.75;20.63;;;5.90;99.90;;;;;;5070551;28;20049;-79
2022/01/13 08:23:08;;;;;;;75.75;25.48;;;5.90;99.90;;;;;;5054198;28;20044;-81
2022/01/13 08:25:35;;;;;;;81.95;25.60;;;5.90;99.90;;;;;;5070749;28;20091;-79
2022/01/13 08:28:00;;;;;;;23.73;10.60;;;5.90;99.90;;;;;;5071333;28;20511;-79
2022/01/13 08:30:26;;;;;;;34.20;14.70;;;5.90;99.90;;;;;;5053860;28;20174;-79
2022/01/13 08:32:52;;;;;;;46.55;17.63;;;5.90;99.90;;;;;;5037402;28;20041;-81
2022/01/13 08:35:18;;;;;;;27.30;11.68;;;6.00;99.90;;;;;;5054251;28;20048;-78
2022/01/13 08:37:44;;;;;;;30.58;12.02;;;5.90;99.90;;;;;;5054385;28;20119;-78
2022/01/13 08:40:12;;;;;;;70.05;22.77;;;5.90;99.90;;;;;;5037542;28;20055;-78
2022/01/13 08:42:38;;;;;;;60.85;20.15;;;5.90;99.90;;;;;;5053153;28;20041;-81
2022/01/13 08:45:07;;;;;;;52.78;20.25;;;5.90;99.90;;;;;;5063862;28;20045;-79
2022/01/13 08:47:33;;;;;;;29.25;12.48;;;5.90;99.90;;;;;;5054072;28;20098;-79
2022/01/13 08:49:59;;;;;;;27.95;13.38;;;6.00;99.90;;;;;;5037608;28;20040;-81
2022/01/13 08:52:26;;;;;;;32.40;14.15;;;6.00;99.90;;;;;;5070878;28;20041;-78
2022/01/13 08:54:55;;;;;;;31.25;13.38;;;6.00;99.90;;;;;;5053834;28;20044;-81
2022/01/13 08:57:21;;;;;;;33.60;14.32;;;5.90;99.90;;;;;;5074437;28;20041;-78
2022/01/13 08:59:47;;;;;;;30.60;14.88;;;6.00;99.90;;;;;;5040746;28;20044;-78
2022/01/13 09:02:13;;;;;;;49.63;21.30;;;6.00;99.90;;;;;;5057866;28;20533;-79
2022/01/13 09:04:40;;;;;;;55.78;20.50;;;6.00;99.90;;;;;;5040844;28;20086;-79
2022/01/13 09:07:06;;;;;;;48.88;19.95;;;6.10;99.90;;;;;;5073811;28;20080;-81
2022/01/13 09:09:31;;;;;;;40.55;17.58;;;6.00;99.90;;;;;;5023792;28;20475;-81
2022/01/13 09:11:57;;;;;;;40.85;16.60;;;6.10;99.90;;;;;;5052142;28;20132;-78
2022/01/13 09:14:26;;;;;;;25.73;13.27;;;6.00;99.90;;;;;;5037782;28;20068;-78
2022/01/13 09:16:52;;;;;;;34.83;15.02;;;6.00;99.90;;;;;;5050125;28;20033;-81
2022/01/13 09:19:19;;;;;;;27.27;14.65;;;6.00;99.90;;;;;;5057315;28;20055;-78
2022/01/13 09:21:46;;;;;;;21.63;10.45;;;6.10;99.90;;;;;;5056525;28;20380;-78
2022/01/13 09:24:15;;;;;;;35.58;14.07;;;6.10;99.90;;;;;;5056075;28;20049;-78
2022/01/13 09:26:41;;;;;;;36.33;16.77;;;6.10;99.90;;;;;;5072393;28;20045;-79
2022/01/13 09:29:08;;;;;;;56.67;22.23;;;6.00;99.90;;;;;;5050830;28;20041;-78
2022/01/13 09:31:36;;;;;;;42.63;17.42;;;6.10;99.90;;;;;;5062689;28;20056;-79
2022/01/13 09:34:04;;;;;;;32.72;15.68;;;6.20;99.90;;;;;;5053810;28;20453;-78
2022/01/13 09:36:31;;;;;;;24.02;12.90;;;6.20;99.90;;;;;;5071071;28;20487;-78
2022/01/13 09:38:58;;;;;;;56.00;23.52;;;6.10;99.90;;;;;;5056654;28;20036;-81
2022/01/13 09:41:27;;;;;;;42.28;18.60;;;6.30;99.90;;;;;;5073522;28;20075;-82
2022/01/13 09:43:53;;;;;;;23.95;12.18;;;6.20;99.90;;;;;;5073447;28;20044;-81
2022/01/13 09:46:18;;;;;;;34.65;13.50;;;6.20;99.90;;;;;;5057469;28;20387;-78
2022/01/13 09:48:45;;;;;;;38.53;16.05;;;6.30;99.90;;;;;;5056906;28;20117;-82
2022/01/13 09:51:11;;;;;;;37.22;15.05;;;6.30;99.90;;;;;;5073714;28;20048;-78
2022/01/13 09:53:37;;;;;;;27.98;13.10;;;6.30;99.90;;;;;;5057040;28;20055;-79
2022/01/13 09:56:04;;;;;;;20.70;13.07;;;6.30;99.90;;;;;;5073617;28;20080;-78
2022/01/13 09:58:30;;;;;;;49.63;19.02;;;6.30;99.90;;;;;;5073382;28;20051;-78
2022/01/13 10:00:57;;;;;;;25.88;12.05;;;6.30;99.90;;;;;;5056911;28;20048;-78
2022/01/13 10:03:27;;;;;;;35.55;18.75;;;6.30;99.90;;;;;;5073463;28;20051;-81
2022/01/13 10:05:59;;;;;;;37.00;16.05;;;6.40;99.90;;;;;;5057280;28;20504;-78
2022/01/13 10:08:47;;;;;;;28.63;15.30;;;6.40;99.90;;;;;;5073618;28;20367;-81
2022/01/13 10:11:36;;;;;;;25.75;14.27;;;6.40;99.90;;;;;;5073444;28;20078;-81
2022/01/13 10:16:53;;;;;;;46.72;21.35;;;6.40;99.90;;;;;;5073536;28;20052;-82
2022/01/13 10:19:49;;;;;;;35.60;16.08;;;6.40;99.90;;;;;;5072962;28;20084;-81
2022/01/13 10:22:20;;;;;;;26.17;12.75;;;6.50;99.90;;;;;;5072637;28;20052;-81
2022/01/13 10:24:49;;;;;;;35.28;17.00;;;6.40;99.90;;;;;;5073194;28;20127;-78
2022/01/13 10:27:27;;;;;;;43.78;19.10;;;6.40;99.90;;;;;;5072905;28;20051;-78
2022/01/13 10:29:59;;;;;;;24.73;13.68;;;6.40;99.90;;;;;;5073134;28;20127;-82
2022/01/13 10:32:37;;;;;;;30.00;17.35;;;6.40;99.90;;;;;;5072901;28;20044;-81
2022/01/13 10:35:10;;;;;;;46.53;20.83;;;6.40;99.90;;;;;;5073286;28;20051;-82
2022/01/13 10:37:42;;;;;;;54.03;26.13;;;6.40;99.90;;;;;;5056385;28;20407;-81
2022/01/13 10:40:12;;;;;;;66.65;30.50;;;6.50;99.90;;;;;;5056240;28;20521;-81
2022/01/13 10:45:45;;;;;;;27.45;14.35;;;6.50;99.90;;;;;;5072812;28;20143;-79
2022/01/13 10:48:19;;;;;;;54.63;28.20;;;6.50;99.90;;;;;;5072758;28;20475;-78
2022/01/13 10:50:45;;;;;;;46.42;23.67;;;6.40;99.90;;;;;;5072436;28;20087;-81
2022/01/13 10:53:21;;;;;;;52.60;24.15;;;6.40;99.90;;;;;;5055935;28;20080;-81
2022/01/13 10:55:53;;;;;;;57.03;26.05;;;6.50;99.90;;;;;;5055766;28;20055;-81
2022/01/13 10:58:31;;;;;;;56.20;19.20;;;6.50;99.90;;;;;;5072517;28;20062;-79
2022/01/13 11:00:58;;;;;;;61.88;25.48;;;6.50;99.90;;;;;;5072572;28;20126;-81
2022/01/13 11:03:27;;;;;;;32.03;15.88;;;6.50;99.90;;;;;;5072112;28;20040;-82
2022/01/13 11:05:58;;;;;;;43.25;23.15;;;6.50;99.90;;;;;;5072408;28;20418;-81
2022/01/13 11:08:40;;;;;;;35.28;15.52;;;6.50;99.90;;;;;;5055519;28;20430;-81
2022/01/13 11:11:14;;;;;;;34.80;16.98;;;6.50;99.90;;;;;;5055545;28;20123;-81
2022/01/13 11:13:53;;;;;;;44.15;20.42;;;6.50;99.90;;;;;;5072085;28;20086;-78
2022/01/13 11:16:20;;;;;;;55.45;25.67;;;6.60;99.90;;;;;;5072205;28;20044;-81
2022/01/13 11:18:46;;;;;;;64.85;28.95;;;6.60;99.90;;;;;;5071230;28;20086;-78
2022/01/13 11:21:13;;;;;;;53.53;20.98;;;6.60;99.90;;;;;;5055411;28;20045;-78
2022/01/13 11:23:41;;;;;;;29.58;15.85;;;6.70;99.90;;;;;;5055539;28;20506;-81
2022/01/13 11:26:08;;;;;;;35.05;16.17;;;6.60;99.90;;;;;;5072116;28;20514;-81
2022/01/13 11:28:37;;;;;;;29.80;14.55;;;6.60;99.90;;;;;;5071656;28;20048;-78
2022/01/13 11:31:03;;;;;;;41.83;21.20;;;6.70;99.90;;;;;;5038706;28;20047;-81
2022/01/13 11:33:28;;;;;;;24.80;14.82;;;6.70;99.90;;;;;;5054871;28;20045;-78
2022/01/13 11:35:58;;;;;;;27.73;14.55;;;6.70;99.90;;;;;;5055167;28;20047;-78
2022/01/13 11:38:27;;;;;;;26.90;13.02;;;6.60;99.90;;;;;;5071892;28;20379;-78
2022/01/13 11:41:05;;;;;;;25.02;13.82;;;6.70;99.90;;;;;;5055323;28;20036;-79
2022/01/13 11:43:37;;;;;;;29.48;13.85;;;6.60;99.90;;;;;;5071869;28;20128;-79
2022/01/13 11:46:21;;;;;;;25.77;15.48;;;6.50;99.90;;;;;;5055039;28;20119;-82
2022/01/13 11:49:00;;;;;;;22.52;13.40;;;6.60;99.90;;;;;;5071670;28;20048;-81
2022/01/13 11:51:28;;;;;;;25.00;13.80;;;6.60;99.90;;;;;;5071542;28;20054;-78
2022/01/13 11:54:00;;;;;;;21.95;13.50;;;6.60;99.90;;;;;;5071595;28;20070;-81
2022/01/13 11:56:29;;;;;;;29.02;16.30;;;6.60;99.90;;;;;;5054709;28;20044;-81
2022/01/13 11:58:56;;;;;;;30.73;16.58;;;6.60;99.90;;;;;;5071455;28;20048;-78
2022/01/13 12:01:23;;;;;;;40.15;16.45;;;6.80;99.90;;;;;;5054749;28;20055;-81
2022/01/13 12:03:56;;;;;;;36.90;15.25;;;6.60;99.90;;;;;;5071650;28;20062;-80
2022/01/13 12:06:49;;;;;;;22.67;13.48;;;6.70;99.90;;;;;;5071658;28;20098;-78
2022/01/13 12:09:20;;;;;;;28.35;13.10;;;6.70;99.90;;;;;;5053422;28;20052;-78
2022/01/13 12:11:50;;;;;;;33.38;16.80;;;6.70;99.90;;;;;;5071130;28;20426;-79
2022/01/13 12:17:11;;;;;;;34.50;14.45;;;6.70;99.90;;;;;;5071341;28;20051;-81
2022/01/13 12:19:45;;;;;;;22.75;10.88;;;6.70;99.90;;;;;;5054193;28;20052;-79
2022/01/13 12:22:19;;;;;;;25.30;15.27;;;6.70;99.90;;;;;;5054654;28;20048;-81
2022/01/13 12:24:54;;;;;;;31.55;17.10;;;6.80;99.90;;;;;;5071362;28;20045;-78
2022/01/13 12:27:39;;;;;;;28.10;14.77;;;6.80;99.90;;;;;;5054426;28;20040;-82
2022/01/13 12:30:27;;;;;;;27.65;13.05;;;6.90;99.90;;;;;;5071836;28;20458;-81
2022/01/13 12:32:59;;;;;;;29.95;14.45;;;7.00;99.90;;;;;;5058551;28;20123;-81
2022/01/13 12:35:43;;;;;;;25.73;12.68;;;7.10;99.90;;;;;;5075146;28;20095;-78
2022/01/13 12:38:16;;;;;;;23.52;11.10;;;7.20;99.90;;;;;;5058757;28;20443;-78
2022/01/13 12:41:04;;;;;;;28.90;14.20;;;7.20;99.90;;;;;;5058611;28;20423;-81
2022/01/13 12:46:12;;;;;;;20.42;11.93;;;7.30;99.90;;;;;;5075266;28;20109;-81
2022/01/13 12:48:42;;;;;;;22.58;11.82;;;7.30;99.90;;;;;;5074829;28;20040;-81
2022/01/13 12:51:13;;;;;;;25.00;11.63;;;7.40;99.90;;;;;;5058268;28;20070;-78
2022/01/13 12:53:39;;;;;;;18.85;8.95;;;7.40;99.90;;;;;;5074835;28;20053;-78
2022/01/13 12:56:12;;;;;;;23.80;11.48;;;7.40;99.90;;;;;;5058221;28;20041;-78
2022/01/13 12:58:42;;;;;;;16.02;7.65;;;7.40;99.90;;;;;;5058110;28;20044;-78
2022/01/13 13:01:15;;;;;;;26.50;11.88;;;7.50;99.90;;;;;;5058383;28;20066;-78
2022/01/13 13:03:42;;;;;;;17.02;9.68;;;7.50;99.90;;;;;;5058306;28;20483;-79
2022/01/13 13:06:13;;;;;;;21.92;10.20;;;7.60;99.90;;;;;;5074711;28;20041;-82
2022/01/13 13:08:47;;;;;;;15.73;8.27;;;7.60;99.90;;;;;;5057885;28;20123;-81
2022/01/13 13:11:13;;;;;;;15.75;8.15;;;7.60;99.90;;;;;;5074597;28;20076;-82
2022/01/13 13:13:50;;;;;;;21.45;10.65;;;7.60;99.90;;;;;;5074485;28;20048;-79
2022/01/13 13:16:16;;;;;;;27.85;14.55;;;7.60;99.90;;;;;;5057793;28;20086;-81
2022/01/13 13:18:42;;;;;;;15.13;8.02;;;7.60;99.90;;;;;;5074675;28;20037;-79
2022/01/13 13:21:10;;;;;;;13.80;8.00;;;7.60;99.90;;;;;;5057817;28;20052;-80
2022/01/13 13:23:42;;;;;;;24.67;10.32;;;7.60;99.90;;;;;;5074042;28;20048;-79
2022/01/13 13:26:14;;;;;;;13.68;8.13;;;7.70;99.90;;;;;;5057621;28;20123;-79
2022/01/13 13:28:52;;;;;;;25.17;10.80;;;7.70;99.90;;;;;;5074129;28;20045;-82
2022/01/13 13:31:21;;;;;;;20.95;8.32;;;7.80;99.90;;;;;;5074357;28;20566;-81
2022/01/13 13:33:49;;;;;;;19.33;8.73;;;7.80;99.90;;;;;;5057488;28;20517;-78
2022/01/13 13:36:19;;;;;;;20.42;10.48;;;7.80;99.90;;;;;;5074019;28;20041;-78
2022/01/13 13:38:52;;;;;;;18.00;8.32;;;7.80;99.90;;;;;;5057123;28;20041;-81
2022/01/13 13:41:27;;;;;;;16.67;7.70;;;7.80;99.90;;;;;;5056913;28;20093;-82
2022/01/13 13:43:54;;;;;;;15.88;7.65;;;7.70;99.90;;;;;;5073887;28;20052;-78
2022/01/13 13:46:21;;;;;;;13.60;6.28;;;7.90;99.90;;;;;;5040460;28;20044;-81
2022/01/13 13:48:47;;;;;;;18.33;7.70;;;7.80;99.90;;;;;;5057087;28;20123;-81
2022/01/13 13:51:22;;;;;;;24.73;9.75;;;7.70;99.90;;;;;;5057130;28;20044;-79
2022/01/13 13:54:09;;;;;;;22.85;10.55;;;7.90;99.90;;;;;;5057042;28;20040;-79
2022/01/13 13:56:37;;;;;;;14.68;6.43;;;7.90;99.90;;;;;;5056920;28;20055;-79
2022/01/13 13:59:03;;;;;;;17.08;7.45;;;8.10;99.90;;;;;;5073686;28;20264;-79
2022/01/13 14:01:29;;;;;;;22.80;11.02;;;8.20;99.90;;;;;;5056801;28;20036;-80
2022/01/13 14:03:54;;;;;;;12.77;7.68;;;8.10;99.90;;;;;;5056763;28;20036;-81
2022/01/13 14:06:40;;;;;;;12.50;6.35;;;8.00;99.90;;;;;;5040205;28;20129;-78
2022/01/13 14:09:07;;;;;;;18.33;7.60;;;7.80;99.90;;;;;;5073116;28;20131;-79
2022/01/13 14:11:44;;;;;;;12.40;6.35;;;7.80;99.90;;;;;;5073603;28;20403;-79
2022/01/13 14:14:11;;;;;;;16.35;6.60;;;7.70;99.90;;;;;;5073094;28;20109;-78
2022/01/13 14:16:37;;;;;;;16.40;7.40;;;7.80;99.90;;;;;;5072966;28;20047;-79
2022/01/13 14:19:07;;;;;;;24.50;8.88;;;7.80;99.90;;;;;;5056533;28;20045;-81
2022/01/13 14:21:52;;;;;;;14.52;5.70;;;7.70;99.90;;;;;;5073033;28;20048;-81
2022/01/13 14:24:37;;;;;;;20.83;8.88;;;7.60;99.90;;;;;;5073145;28;20149;-81
2022/01/13 14:27:13;;;;;;;18.73;6.75;;;7.60;99.90;;;;;;5056589;28;20044;-81